sensor_id;sensor_type;location;lat;lon;timestamp;temperature;humidity
71551;DHT22;59367;48.414;9.872;2023-01-05T00:00:02;11.98748779;70.61157227
71551;DHT22;59367;48.414;9.872;2023-01-05T00:01:11;11.97146606;70.61767578
71551;DHT22;59367;48.414;9.872;2023-01-05T00:02:18;11.97146606;70.53070068
71551;DHT22;59367;48.414;9.872;2023-01-05T00:03:26;12.00083923;70.48797607
71551;DHT22;59367;48.414;9.872;2023-01-05T00:04:33;12.0302124;70.30639648
71551;DHT22;59367;48.414;9.872;2023-01-05T00:05:41;12.04356384;70.34759521
71551;DHT22;59367;48.414;9.872;2023-01-05T00:06:48;12.0302124;70.29724121
71551;DHT22;59367;48.414;9.872;2023-01-05T00:07:55;12.07026672;70.23620605
71551;DHT22;59367;48.414;9.872;2023-01-05T00:09:04;12.08628845;70.15075684
71551;DHT22;59367;48.414;9.872;2023-01-05T00:10:12;12.07026672;70.16906738
71551;DHT22;59367;48.414;9.872;2023-01-05T00:11:21;12.08628845;70.19042969
71551;DHT22;59367;48.414;9.872;2023-01-05T00:12:29;12.08628845;70.12176514
71551;DHT22;59367;48.414;9.872;2023-01-05T00:13:37;12.08628845;70.31860352
71551;DHT22;59367;48.414;9.872;2023-01-05T00:14:44;12.04356384;70.23162842
71551;DHT22;59367;48.414;9.872;2023-01-05T00:15:52;12.05691528;70.33233643
71551;DHT22;59367;48.414;9.872;2023-01-05T00:16:59;12.07026672;70.36437988
71551;DHT22;59367;48.414;9.872;2023-01-05T00:18:07;12.09963989;70.34759521
71551;DHT22;59367;48.414;9.872;2023-01-05T00:19:15;12.07026672;70.60852051
71551;DHT22;59367;48.414;9.872;2023-01-05T00:20:24;12.08628845;70.70007324
71551;DHT22;59367;48.414;9.872;2023-01-05T00:21:31;12.04356384;70.91522217
71551;DHT22;59367;48.414;9.872;2023-01-05T00:22:45;12.08628845;70.88623047
71551;DHT22;59367;48.414;9.872;2023-01-05T00:23:53;12.08628845;70.83587646
71551;DHT22;59367;48.414;9.872;2023-01-05T00:25:02;12.08628845;70.85571289
71551;DHT22;59367;48.414;9.872;2023-01-05T00:26:10;12.05691528;70.90911865
71551;DHT22;59367;48.414;9.872;2023-01-05T00:27:18;12.05691528;71.0067749
71551;DHT22;59367;48.414;9.872;2023-01-05T00:28:25;12.07026672;70.95947266
71551;DHT22;59367;48.414;9.872;2023-01-05T00:29:32;12.07026672;70.9197998
71551;DHT22;59367;48.414;9.872;2023-01-05T00:30:43;12.05691528;70.90911865
71551;DHT22;59367;48.414;9.872;2023-01-05T00:31:50;12.07026672;71.02813721
71551;DHT22;59367;48.414;9.872;2023-01-05T00:32:58;12.07026672;70.93811035
71551;DHT22;59367;48.414;9.872;2023-01-05T00:34:05;12.09963989;71.043396
71551;DHT22;59367;48.414;9.872;2023-01-05T00:35:14;12.08628845;70.85571289
71551;DHT22;59367;48.414;9.872;2023-01-05T00:36:21;12.0302124;70.96405029
71551;DHT22;59367;48.414;9.872;2023-01-05T00:37:30;12.05691528;70.99609375
71551;DHT22;59367;48.414;9.872;2023-01-05T00:38:38;12.04356384;70.96557617
71551;DHT22;59367;48.414;9.872;2023-01-05T00:39:45;12.01419067;71.10595703
71551;DHT22;59367;48.414;9.872;2023-01-05T00:40:53;12.04356384;71.09222412
71551;DHT22;59367;48.414;9.872;2023-01-05T00:42:00;12.05691528;71.12426758
71551;DHT22;59367;48.414;9.872;2023-01-05T00:43:08;12.09963989;70.95489502
71551;DHT22;59367;48.414;9.872;2023-01-05T00:44:15;12.12901688;70.79467773
71551;DHT22;59367;48.414;9.872;2023-01-05T00:45:23;12.09963989;70.7901001
71551;DHT22;59367;48.414;9.872;2023-01-05T00:46:30;12.1450386;70.80535889
71551;DHT22;59367;48.414;9.872;2023-01-05T00:47:38;12.11566162;70.7321167
71551;DHT22;59367;48.414;9.872;2023-01-05T00:48:45;12.12901688;70.70770264
71551;DHT22;59367;48.414;9.872;2023-01-05T00:49:52;12.12901688;70.63598633
71551;DHT22;59367;48.414;9.872;2023-01-05T00:51:00;12.17174149;70.67260742
71551;DHT22;59367;48.414;9.872;2023-01-05T00:52:08;12.1450386;70.66802979
71551;DHT22;59367;48.414;9.872;2023-01-05T00:53:15;12.18776321;70.59020996
71551;DHT22;59367;48.414;9.872;2023-01-05T00:54:23;12.18776321;70.80383301
71551;DHT22;59367;48.414;9.872;2023-01-05T00:55:30;12.18776321;70.82366943
71551;DHT22;59367;48.414;9.872;2023-01-05T00:56:37;12.21446609;70.80993652
71551;DHT22;59367;48.414;9.872;2023-01-05T00:57:45;12.18776321;70.98236084
71551;DHT22;59367;48.414;9.872;2023-01-05T00:58:55;12.21446609;71.10290527
71551;DHT22;59367;48.414;9.872;2023-01-05T01:00:03;12.22781754;71.18377686
71551;DHT22;59367;48.414;9.872;2023-01-05T01:01:14;12.24383926;71.08001709
71551;DHT22;59367;48.414;9.872;2023-01-05T01:02:22;12.24383926;71.02966309
71551;DHT22;59367;48.414;9.872;2023-01-05T01:03:29;12.24383926;71.20666504
71551;DHT22;59367;48.414;9.872;2023-01-05T01:04:37;12.20111465;71.13952637
71551;DHT22;59367;48.414;9.872;2023-01-05T01:05:44;12.17174149;71.22192383
71551;DHT22;59367;48.414;9.872;2023-01-05T01:06:52;12.17174149;71.24023438
71551;DHT22;59367;48.414;9.872;2023-01-05T01:08:00;12.20111465;71.34552002
71551;DHT22;59367;48.414;9.872;2023-01-05T01:09:07;12.17174149;71.64306641
71551;DHT22;59367;48.414;9.872;2023-01-05T01:10:15;12.18776321;71.88110352
71551;DHT22;59367;48.414;9.872;2023-01-05T01:11:23;12.17174149;71.96655273
71551;DHT22;59367;48.414;9.872;2023-01-05T01:12:30;12.18776321;72.03674316
71551;DHT22;59367;48.414;9.872;2023-01-05T01:13:38;12.20111465;72.03063965
71551;DHT22;59367;48.414;9.872;2023-01-05T01:14:49;12.18776321;71.98944092
71551;DHT22;59367;48.414;9.872;2023-01-05T01:15:56;12.18776321;71.92993164
71551;DHT22;59367;48.414;9.872;2023-01-05T01:17:04;12.21446609;71.91619873
71551;DHT22;59367;48.414;9.872;2023-01-05T01:18:11;12.24383926;71.67510986
71551;DHT22;59367;48.414;9.872;2023-01-05T01:19:21;12.24383926;71.56982422
71551;DHT22;59367;48.414;9.872;2023-01-05T01:20:29;12.27054214;71.48590088
71551;DHT22;59367;48.414;9.872;2023-01-05T01:21:36;12.27054214;71.45843506
71551;DHT22;59367;48.414;9.872;2023-01-05T01:22:43;12.27054214;71.52404785
71551;DHT22;59367;48.414;9.872;2023-01-05T01:23:51;12.27054214;71.51489258
71551;DHT22;59367;48.414;9.872;2023-01-05T01:24:58;12.27054214;71.68273926
71551;DHT22;59367;48.414;9.872;2023-01-05T01:26:07;12.2571907;72.02148438
71551;DHT22;59367;48.414;9.872;2023-01-05T01:27:15;12.20111465;72.27478027
71551;DHT22;59367;48.414;9.872;2023-01-05T01:28:22;12.24383926;72.22442627
71551;DHT22;59367;48.414;9.872;2023-01-05T01:29:30;12.29991531;72.16491699
71551;DHT22;59367;48.414;9.872;2023-01-05T01:30:40;12.29991531;72.31140137
71551;DHT22;59367;48.414;9.872;2023-01-05T01:31:50;12.29991531;72.4105835
71551;DHT22;59367;48.414;9.872;2023-01-05T01:32:57;12.27054214;72.55249023
71551;DHT22;59367;48.414;9.872;2023-01-05T01:34:05;12.28389359;72.54486084
71551;DHT22;59367;48.414;9.872;2023-01-05T01:35:13;12.29991531;72.4609375
71551;DHT22;59367;48.414;9.872;2023-01-05T01:36:20;12.24383926;72.65472412
71551;DHT22;59367;48.414;9.872;2023-01-05T01:37:28;12.21446609;72.71728516
71551;DHT22;59367;48.414;9.872;2023-01-05T01:38:36;12.20111465;72.79205322
71551;DHT22;59367;48.414;9.872;2023-01-05T01:39:43;12.15839005;72.93701172
71551;DHT22;59367;48.414;9.872;2023-01-05T01:40:51;12.20111465;72.88818359
71551;DHT22;59367;48.414;9.872;2023-01-05T01:41:58;12.20111465;73.04840088
71551;DHT22;59367;48.414;9.872;2023-01-05T01:43:08;12.17174149;73.01483154
71551;DHT22;59367;48.414;9.872;2023-01-05T01:45:49;12.1450386;73.08502197
71551;DHT22;59367;48.414;9.872;2023-01-05T01:46:56;12.15839005;72.99346924
71551;DHT22;59367;48.414;9.872;2023-01-05T01:48:04;12.1450386;73.1338501
71551;DHT22;59367;48.414;9.872;2023-01-05T01:49:11;12.17174149;73.08349609
71551;DHT22;59367;48.414;9.872;2023-01-05T01:50:22;12.17174149;73.07128906
71551;DHT22;59367;48.414;9.872;2023-01-05T01:51:34;12.18776321;73.12469482
71551;DHT22;59367;48.414;9.872;2023-01-05T01:52:43;12.18776321;73.09417725
71551;DHT22;59367;48.414;9.872;2023-01-05T01:53:56;12.20111465;72.98278809
71551;DHT22;59367;48.414;9.872;2023-01-05T01:55:06;12.18776321;73.06518555
71551;DHT22;59367;48.414;9.872;2023-01-05T01:56:17;12.15839005;73.08807373
71551;DHT22;59367;48.414;9.872;2023-01-05T01:57:28;12.1450386;73.22998047
71551;DHT22;59367;48.414;9.872;2023-01-05T01:58:36;12.1450386;73.20861816
71551;DHT22;59367;48.414;9.872;2023-01-05T01:59:44;12.1450386;73.17199707
71551;DHT22;59367;48.414;9.872;2023-01-05T02:00:52;12.17174149;73.14910889
71551;DHT22;59367;48.414;9.872;2023-01-05T02:02:02;12.1450386;73.10638428
71551;DHT22;59367;48.414;9.872;2023-01-05T02:03:09;12.15839005;73.13537598
71551;DHT22;59367;48.414;9.872;2023-01-05T02:04:17;12.17174149;73.19793701
71551;DHT22;59367;48.414;9.872;2023-01-05T02:05:27;12.18776321;73.12469482
71551;DHT22;59367;48.414;9.872;2023-01-05T02:06:35;12.11566162;73.16589355
71551;DHT22;59367;48.414;9.872;2023-01-05T02:07:46;12.17174149;73.17657471
71551;DHT22;59367;48.414;9.872;2023-01-05T02:08:54;12.17174149;73.14910889
71551;DHT22;59367;48.414;9.872;2023-01-05T02:10:02;12.1450386;73.28643799
71551;DHT22;59367;48.414;9.872;2023-01-05T02:11:21;12.12901688;73.40545654
71551;DHT22;59367;48.414;9.872;2023-01-05T02:12:42;12.15839005;73.34594727
71551;DHT22;59367;48.414;9.872;2023-01-05T02:14:02;12.15839005;73.39477539
71551;DHT22;59367;48.414;9.872;2023-01-05T02:15:21;12.12901688;73.51074219
71551;DHT22;59367;48.414;9.872;2023-01-05T02:16:38;12.1450386;73.63891602
71551;DHT22;59367;48.414;9.872;2023-01-05T02:17:57;12.1450386;73.66638184
71551;DHT22;59367;48.414;9.872;2023-01-05T02:19:25;12.12901688;73.69232178
71551;DHT22;59367;48.414;9.872;2023-01-05T02:20:51;12.17174149;73.59619141
71551;DHT22;59367;48.414;9.872;2023-01-05T02:22:06;12.18776321;73.53210449
71551;DHT22;59367;48.414;9.872;2023-01-05T02:23:35;12.20111465;73.49700928
71551;DHT22;59367;48.414;9.872;2023-01-05T02:25:27;12.18776321;73.42834473
71551;DHT22;59367;48.414;9.872;2023-01-05T02:27:04;12.18776321;73.23913574
71551;DHT22;59367;48.414;9.872;2023-01-05T02:28:24;12.21446609;73.19488525
71551;DHT22;59367;48.414;9.872;2023-01-05T02:29:48;12.22781754;73.10180664
71551;DHT22;59367;48.414;9.872;2023-01-05T02:31:21;12.21446609;73.12927246
71551;DHT22;59367;48.414;9.872;2023-01-05T02:32:31;12.28389359;73.0255127
71551;DHT22;59367;48.414;9.872;2023-01-05T02:35:16;12.2571907;73.10638428
71551;DHT22;59367;48.414;9.872;2023-01-05T02:36:33;12.29991531;73.0758667
71551;DHT22;59367;48.414;9.872;2023-01-05T02:37:45;12.28389359;72.97058105
71551;DHT22;59367;48.414;9.872;2023-01-05T02:38:57;12.27054214;73.02398682
71551;DHT22;59367;48.414;9.872;2023-01-05T02:40:09;12.28389359;73.01940918
71551;DHT22;59367;48.414;9.872;2023-01-05T02:41:25;12.27054214;73.12011719
71551;DHT22;59367;48.414;9.872;2023-01-05T02:42:37;12.29991531;73.10638428
71551;DHT22;59367;48.414;9.872;2023-01-05T02:43:46;12.28389359;73.20861816
71551;DHT22;59367;48.414;9.872;2023-01-05T02:44:54;12.28389359;73.21777344
71551;DHT22;59367;48.414;9.872;2023-01-05T02:46:01;12.29991531;73.26812744
71551;DHT22;59367;48.414;9.872;2023-01-05T02:47:34;12.28389359;73.30322266
71551;DHT22;59367;48.414;9.872;2023-01-05T02:48:42;12.32661819;73.17962646
71551;DHT22;59367;48.414;9.872;2023-01-05T02:49:51;12.34263992;73.22998047
71551;DHT22;59367;48.414;9.872;2023-01-05T02:51:03;12.35599136;73.13537598
71551;DHT22;59367;48.414;9.872;2023-01-05T02:52:12;12.3693428;72.98736572
71551;DHT22;59367;48.414;9.872;2023-01-05T02:53:23;12.3693428;72.996521
71551;DHT22;59367;48.414;9.872;2023-01-05T02:54:34;12.34263992;72.95227051
71551;DHT22;59367;48.414;9.872;2023-01-05T02:55:47;12.34263992;73.01940918
71551;DHT22;59367;48.414;9.872;2023-01-05T02:56:59;12.38269806;72.95074463
71551;DHT22;59367;48.414;9.872;2023-01-05T02:58:11;12.39871979;72.85003662
71551;DHT22;59367;48.414;9.872;2023-01-05T02:59:25;12.41207123;72.83172607
71551;DHT22;59367;48.414;9.872;2023-01-05T03:00:37;12.43877411;72.73101807
71551;DHT22;59367;48.414;9.872;2023-01-05T03:01:49;12.41207123;72.70507813
71551;DHT22;59367;48.414;9.872;2023-01-05T03:03:01;12.46814728;72.62115479
71551;DHT22;59367;48.414;9.872;2023-01-05T03:04:15;12.43877411;72.59368896
71551;DHT22;59367;48.414;9.872;2023-01-05T03:05:30;12.42542267;72.55249023
71551;DHT22;59367;48.414;9.872;2023-01-05T03:06:41;12.42542267;72.56317139
71551;DHT22;59367;48.414;9.872;2023-01-05T03:07:50;12.45479584;72.52960205
71551;DHT22;59367;48.414;9.872;2023-01-05T03:09:02;12.43877411;72.55401611
71551;DHT22;59367;48.414;9.872;2023-01-05T03:10:12;12.42542267;72.51281738
71551;DHT22;59367;48.414;9.872;2023-01-05T03:11:21;12.41207123;72.64862061
71551;DHT22;59367;48.414;9.872;2023-01-05T03:12:32;12.41207123;72.68676758
71551;DHT22;59367;48.414;9.872;2023-01-05T03:13:41;12.39871979;72.66387939
71551;DHT22;59367;48.414;9.872;2023-01-05T03:14:53;12.41207123;72.65777588
71551;DHT22;59367;48.414;9.872;2023-01-05T03:16:01;12.39871979;72.64556885
71551;DHT22;59367;48.414;9.872;2023-01-05T03:17:12;12.45479584;72.58605957
71551;DHT22;59367;48.414;9.872;2023-01-05T03:18:22;12.45479584;72.41973877
71551;DHT22;59367;48.414;9.872;2023-01-05T03:19:33;12.48149872;72.38464355
71551;DHT22;59367;48.414;9.872;2023-01-05T03:20:45;12.48149872;72.31903076
71551;DHT22;59367;48.414;9.872;2023-01-05T03:21:54;12.39871979;72.43041992
71551;DHT22;59367;48.414;9.872;2023-01-05T03:23:05;12.43877411;72.52655029
71551;DHT22;59367;48.414;9.872;2023-01-05T03:24:14;12.41207123;72.44262695
71551;DHT22;59367;48.414;9.872;2023-01-05T03:25:25;12.42542267;72.45330811
71551;DHT22;59367;48.414;9.872;2023-01-05T03:26:33;12.43877411;72.47619629
71551;DHT22;59367;48.414;9.872;2023-01-05T03:27:41;12.43877411;72.39837646
71551;DHT22;59367;48.414;9.872;2023-01-05T03:28:52;12.42542267;72.39685059
71551;DHT22;59367;48.414;9.872;2023-01-05T03:30:01;12.38269806;72.54486084
71551;DHT22;59367;48.414;9.872;2023-01-05T03:31:12;12.38269806;72.54486084
71551;DHT22;59367;48.414;9.872;2023-01-05T03:32:25;12.41207123;72.5402832
71551;DHT22;59367;48.414;9.872;2023-01-05T03:33:40;12.39871979;72.38006592
71551;DHT22;59367;48.414;9.872;2023-01-05T03:34:54;12.45479584;72.34191895
71551;DHT22;59367;48.414;9.872;2023-01-05T03:36:06;12.43877411;72.18170166
71551;DHT22;59367;48.414;9.872;2023-01-05T03:37:19;12.45479584;72.17712402
71551;DHT22;59367;48.414;9.872;2023-01-05T03:38:32;12.51087189;72.13745117
71551;DHT22;59367;48.414;9.872;2023-01-05T03:39:43;12.49752045;72.01843262
71551;DHT22;59367;48.414;9.872;2023-01-05T03:40:54;12.49752045;71.96807861
71551;DHT22;59367;48.414;9.872;2023-01-05T03:42:03;12.51087189;71.91162109
71551;DHT22;59367;48.414;9.872;2023-01-05T03:43:11;12.52422333;71.94519043
71551;DHT22;59367;48.414;9.872;2023-01-05T03:44:19;12.56694794;71.89331055
71551;DHT22;59367;48.414;9.872;2023-01-05T03:45:30;12.59632111;71.80175781
71551;DHT22;59367;48.414;9.872;2023-01-05T03:46:41;12.59632111;71.78039551
71551;DHT22;59367;48.414;9.872;2023-01-05T03:47:49;12.60967255;71.65679932
71551;DHT22;59367;48.414;9.872;2023-01-05T03:48:56;12.60967255;71.60644531
71551;DHT22;59367;48.414;9.872;2023-01-05T03:50:04;12.60967255;71.52862549
71551;DHT22;59367;48.414;9.872;2023-01-05T03:51:12;12.62302399;71.56066895
71551;DHT22;59367;48.414;9.872;2023-01-05T03:52:20;12.63637924;71.51489258
71551;DHT22;59367;48.414;9.872;2023-01-05T03:53:28;12.63637924;71.44470215
71551;DHT22;59367;48.414;9.872;2023-01-05T03:54:35;12.66575241;71.29364014
71551;DHT22;59367;48.414;9.872;2023-01-05T03:55:43;12.66575241;71.27532959
71551;DHT22;59367;48.414;9.872;2023-01-05T03:56:50;12.67910385;71.31652832
71551;DHT22;59367;48.414;9.872;2023-01-05T03:57:58;12.69245529;71.13342285
71551;DHT22;59367;48.414;9.872;2023-01-05T03:59:05;12.65240097;71.13494873
71551;DHT22;59367;48.414;9.872;2023-01-05T04:00:14;12.65240097;71.21276855
71551;DHT22;59367;48.414;9.872;2023-01-05T04:01:21;12.66575241;71.23565674
71551;DHT22;59367;48.414;9.872;2023-01-05T04:02:29;12.65240097;71.24328613
71551;DHT22;59367;48.414;9.872;2023-01-05T04:03:37;12.67910385;71.2387085
71551;DHT22;59367;48.414;9.872;2023-01-05T04:04:44;12.67910385;71.17004395
71551;DHT22;59367;48.414;9.872;2023-01-05T04:05:51;12.69245529;71.08459473
71551;DHT22;59367;48.414;9.872;2023-01-05T04:06:59;12.69245529;71.03424072
71551;DHT22;59367;48.414;9.872;2023-01-05T04:08:07;12.70847702;70.9777832
71551;DHT22;59367;48.414;9.872;2023-01-05T04:09:14;12.75120163;70.98693848
71551;DHT22;59367;48.414;9.872;2023-01-05T04:10:22;12.75120163;71.0647583
71551;DHT22;59367;48.414;9.872;2023-01-05T04:11:30;12.7351799;71.02355957
71551;DHT22;59367;48.414;9.872;2023-01-05T04:12:37;12.7351799;71.03271484
71551;DHT22;59367;48.414;9.872;2023-01-05T04:13:45;12.69245529;70.97473145
71551;DHT22;59367;48.414;9.872;2023-01-05T04:14:52;12.70847702;71.05712891
71551;DHT22;59367;48.414;9.872;2023-01-05T04:16:00;12.75120163;71.144104
71551;DHT22;59367;48.414;9.872;2023-01-05T04:17:07;12.75120163;71.05560303
71551;DHT22;59367;48.414;9.872;2023-01-05T04:18:15;12.76455307;71.03881836
71551;DHT22;59367;48.414;9.872;2023-01-05T04:19:22;12.77790451;71.04187012
71551;DHT22;59367;48.414;9.872;2023-01-05T04:20:30;12.77790451;71.10137939
71551;DHT22;59367;48.414;9.872;2023-01-05T04:21:37;12.77790451;71.18835449
71551;DHT22;59367;48.414;9.872;2023-01-05T04:22:45;12.76455307;71.20361328
71551;DHT22;59367;48.414;9.872;2023-01-05T04:23:52;12.79125595;71.1807251
71551;DHT22;59367;48.414;9.872;2023-01-05T04:25:01;12.79125595;71.16088867
71551;DHT22;59367;48.414;9.872;2023-01-05T04:26:08;12.80727768;71.1151123
71551;DHT22;59367;48.414;9.872;2023-01-05T04:27:16;12.80727768;71.12426758
71551;DHT22;59367;48.414;9.872;2023-01-05T04:28:23;12.79125595;71.17156982
71551;DHT22;59367;48.414;9.872;2023-01-05T04:29:31;12.80727768;71.144104
71551;DHT22;59367;48.414;9.872;2023-01-05T04:30:38;12.82062912;71.09832764
71551;DHT22;59367;48.414;9.872;2023-01-05T04:31:46;12.79125595;71.13037109
71551;DHT22;59367;48.414;9.872;2023-01-05T04:32:53;12.80727768;71.1151123
71551;DHT22;59367;48.414;9.872;2023-01-05T04:34:01;12.83398056;71.02355957
71551;DHT22;59367;48.414;9.872;2023-01-05T04:35:08;12.80727768;70.9777832
71551;DHT22;59367;48.414;9.872;2023-01-05T04:36:16;12.82062912;70.97015381
71551;DHT22;59367;48.414;9.872;2023-01-05T04:37:23;12.847332;70.92437744
71551;DHT22;59367;48.414;9.872;2023-01-05T04:38:31;12.86335373;70.89996338
71551;DHT22;59367;48.414;9.872;2023-01-05T04:39:38;12.847332;70.88623047
71551;DHT22;59367;48.414;9.872;2023-01-05T04:40:50;12.87670898;70.86334229
71551;DHT22;59367;48.414;9.872;2023-01-05T04:41:58;12.86335373;70.7824707
71551;DHT22;59367;48.414;9.872;2023-01-05T04:43:05;12.87670898;70.77331543
71551;DHT22;59367;48.414;9.872;2023-01-05T04:44:13;12.89006042;70.84655762
71551;DHT22;59367;48.414;9.872;2023-01-05T04:45:21;12.86335373;70.9197998
71551;DHT22;59367;48.414;9.872;2023-01-05T04:46:28;12.86335373;70.88165283
71551;DHT22;59367;48.414;9.872;2023-01-05T04:47:36;12.86335373;70.95947266
71551;DHT22;59367;48.414;9.872;2023-01-05T04:48:43;12.86335373;70.95031738
71551;DHT22;59367;48.414;9.872;2023-01-05T04:49:51;12.847332;71.02508545
71551;DHT22;59367;48.414;9.872;2023-01-05T04:50:58;12.83398056;70.94268799
71551;DHT22;59367;48.414;9.872;2023-01-05T04:52:06;12.80727768;71.07543945
71551;DHT22;59367;48.414;9.872;2023-01-05T04:53:14;12.83398056;71.02355957
71551;DHT22;59367;48.414;9.872;2023-01-05T04:54:21;12.83398056;70.97320557
71551;DHT22;59367;48.414;9.872;2023-01-05T04:55:28;12.847332;70.94573975
71551;DHT22;59367;48.414;9.872;2023-01-05T04:56:36;12.847332;70.97473145
71551;DHT22;59367;48.414;9.872;2023-01-05T04:57:43;12.847332;70.92437744
71551;DHT22;59367;48.414;9.872;2023-01-05T04:58:51;12.86335373;70.89996338
71551;DHT22;59367;48.414;9.872;2023-01-05T04:59:58;12.847332;70.84655762
71551;DHT22;59367;48.414;9.872;2023-01-05T05:01:06;12.87670898;70.86334229
71551;DHT22;59367;48.414;9.872;2023-01-05T05:02:14;12.89006042;70.79620361
71551;DHT22;59367;48.414;9.872;2023-01-05T05:03:22;12.89006042;70.80535889
71551;DHT22;59367;48.414;9.872;2023-01-05T05:04:29;12.89006042;70.81451416
71551;DHT22;59367;48.414;9.872;2023-01-05T05:05:37;12.90875244;70.70007324
71551;DHT22;59367;48.414;9.872;2023-01-05T05:06:44;12.89006042;70.75805664
71551;DHT22;59367;48.414;9.872;2023-01-05T05:07:52;12.87670898;70.77331543
71551;DHT22;59367;48.414;9.872;2023-01-05T05:08:59;12.86335373;70.77178955
71551;DHT22;59367;48.414;9.872;2023-01-05T05:10:08;12.847332;70.88623047
71551;DHT22;59367;48.414;9.872;2023-01-05T05:11:16;12.83398056;70.93353271
71551;DHT22;59367;48.414;9.872;2023-01-05T05:12:23;12.87670898;70.97015381
71551;DHT22;59367;48.414;9.872;2023-01-05T05:13:30;12.86335373;71.02813721
71551;DHT22;59367;48.414;9.872;2023-01-05T05:14:38;12.847332;70.97473145
71551;DHT22;59367;48.414;9.872;2023-01-05T05:15:46;12.83398056;71.01135254
71551;DHT22;59367;48.414;9.872;2023-01-05T05:16:53;12.86335373;70.98846436
71551;DHT22;59367;48.414;9.872;2023-01-05T05:18:01;12.87670898;70.95184326
71551;DHT22;59367;48.414;9.872;2023-01-05T05:19:09;12.89006042;70.89538574
71551;DHT22;59367;48.414;9.872;2023-01-05T05:20:16;12.89006042;71.01135254
71551;DHT22;59367;48.414;9.872;2023-01-05T05:21:24;12.87670898;70.91369629
71551;DHT22;59367;48.414;9.872;2023-01-05T05:22:31;12.90875244;70.88775635
71551;DHT22;59367;48.414;9.872;2023-01-05T05:23:39;12.89006042;70.89538574
71551;DHT22;59367;48.414;9.872;2023-01-05T05:24:46;12.87670898;71.06933594
71551;DHT22;59367;48.414;9.872;2023-01-05T05:25:55;12.87670898;70.97015381
71551;DHT22;59367;48.414;9.872;2023-01-05T05:27:03;12.86335373;71.05560303
71551;DHT22;59367;48.414;9.872;2023-01-05T05:28:11;12.80727768;71.10595703
71551;DHT22;59367;48.414;9.872;2023-01-05T05:29:18;12.83398056;71.17919922
71551;DHT22;59367;48.414;9.872;2023-01-05T05:30:26;12.83398056;71.08917236
71551;DHT22;59367;48.414;9.872;2023-01-05T05:31:33;12.86335373;71.144104
71551;DHT22;59367;48.414;9.872;2023-01-05T05:32:41;12.83398056;71.08001709
71551;DHT22;59367;48.414;9.872;2023-01-05T05:33:48;12.86335373;71.06628418
71551;DHT22;59367;48.414;9.872;2023-01-05T05:34:56;12.847332;71.10290527
71551;DHT22;59367;48.414;9.872;2023-01-05T05:36:03;12.86335373;71.07543945
71551;DHT22;59367;48.414;9.872;2023-01-05T05:37:11;12.87670898;71.06933594
71551;DHT22;59367;48.414;9.872;2023-01-05T05:38:18;12.86335373;71.02813721
71551;DHT22;59367;48.414;9.872;2023-01-05T05:39:26;12.86335373;71.18377686
71551;DHT22;59367;48.414;9.872;2023-01-05T05:40:33;12.83398056;71.24786377
71551;DHT22;59367;48.414;9.872;2023-01-05T05:41:41;12.847332;71.34857178
71551;DHT22;59367;48.414;9.872;2023-01-05T05:42:48;12.82062912;71.43096924
71551;DHT22;59367;48.414;9.872;2023-01-05T05:43:56;12.82062912;71.47216797
71551;DHT22;59367;48.414;9.872;2023-01-05T05:45:03;12.80727768;71.56524658
71551;DHT22;59367;48.414;9.872;2023-01-05T05:46:11;12.77790451;71.64764404
71551;DHT22;59367;48.414;9.872;2023-01-05T05:47:18;12.77790451;71.67816162
71551;DHT22;59367;48.414;9.872;2023-01-05T05:48:26;12.79125595;71.63238525
71551;DHT22;59367;48.414;9.872;2023-01-05T05:49:33;12.80727768;71.59576416
71551;DHT22;59367;48.414;9.872;2023-01-05T05:50:42;12.80727768;71.78039551
71551;DHT22;59367;48.414;9.872;2023-01-05T05:51:50;12.79125595;71.78955078
71551;DHT22;59367;48.414;9.872;2023-01-05T05:52:57;12.80727768;71.72088623
71551;DHT22;59367;48.414;9.872;2023-01-05T05:54:05;12.80727768;71.73309326
71551;DHT22;59367;48.414;9.872;2023-01-05T05:55:13;12.79125595;71.925354
71551;DHT22;59367;48.414;9.872;2023-01-05T05:56:20;12.77790451;72.00012207
71551;DHT22;59367;48.414;9.872;2023-01-05T05:57:28;12.77790451;72.05963135
71551;DHT22;59367;48.414;9.872;2023-01-05T05:58:35;12.7351799;72.13134766
71551;DHT22;59367;48.414;9.872;2023-01-05T05:59:43;12.76455307;72.15576172
71551;DHT22;59367;48.414;9.872;2023-01-05T06:00:50;12.76455307;72.03063965
71551;DHT22;59367;48.414;9.872;2023-01-05T06:01:57;12.79125595;71.925354
71551;DHT22;59367;48.414;9.872;2023-01-05T06:03:05;12.79125595;72.0413208
71551;DHT22;59367;48.414;9.872;2023-01-05T06:04:12;12.76455307;72.09625244
71551;DHT22;59367;48.414;9.872;2023-01-05T06:05:20;12.75120163;72.16339111
71551;DHT22;59367;48.414;9.872;2023-01-05T06:06:27;12.75120163;72.20153809
71551;DHT22;59367;48.414;9.872;2023-01-05T06:07:35;12.72182846;72.22747803
71551;DHT22;59367;48.414;9.872;2023-01-05T06:08:42;12.70847702;72.23358154
71551;DHT22;59367;48.414;9.872;2023-01-05T06:09:49;12.67910385;72.30529785
71551;DHT22;59367;48.414;9.872;2023-01-05T06:10:57;12.67910385;72.37548828
71551;DHT22;59367;48.414;9.872;2023-01-05T06:12:05;12.67910385;72.35565186